sensor_id;sensor_type;location;lat;lon;timestamp;temperature;humidity
47600;DHT22;33323;52.124;6.018;2023-07-13T00:01:55;16.30;99.90
47600;DHT22;33323;52.124;6.018;2023-07-13T00:04:24;16.20;99.90
47600;DHT22;33323;52.124;6.018;2023-07-13T00:06:53;16.30;99.90
47600;DHT22;33323;52.124;6.018;2023-07-13T00:09:21;16.30;99.90
47600;DHT22;33323;52.124;6.018;2023-07-13T00:11:55;16.30;99.90
47600;DHT22;33323;52.124;6.018;2023-07-13T00:14:24;16.30;99.90
47600;DHT22;33323;52.124;6.018;2023-07-13T00:16:53;16.30;99.90
47600;DHT22;33323;52.124;6.018;2023-07-13T00:19:20;16.30;99.90
47600;DHT22;33323;52.124;6.018;2023-07-13T00:21:48;16.30;99.90
47600;DHT22;33323;52.124;6.018;2023-07-13T00:24:17;16.30;99.90
47600;DHT22;33323;52.124;6.018;2023-07-13T00:26:50;16.30;99.90
47600;DHT22;33323;52.124;6.018;2023-07-13T00:29:18;16.30;99.90
47600;DHT22;33323;52.124;6.018;2023-07-13T00:31:45;16.30;99.90
47600;DHT22;33323;52.124;6.018;2023-07-13T00:34:12;16.20;99.90
47600;DHT22;33323;52.124;6.018;2023-07-13T00:36:40;16.10;99.90
47600;DHT22;33323;52.124;6.018;2023-07-13T00:39:07;16.10;99.90
47600;DHT22;33323;52.124;6.018;2023-07-13T00:41:34;16.10;99.90
47600;DHT22;33323;52.124;6.018;2023-07-13T00:44:03;16.00;99.90
47600;DHT22;33323;52.124;6.018;2023-07-13T00:46:33;16.10;99.90
47600;DHT22;33323;52.124;6.018;2023-07-13T00:49:04;16.20;99.90
47600;DHT22;33323;52.124;6.018;2023-07-13T00:51:39;16.20;99.90
47600;DHT22;33323;52.124;6.018;2023-07-13T00:54:13;16.20;99.90
47600;DHT22;33323;52.124;6.018;2023-07-13T00:56:44;16.20;99.90
47600;DHT22;33323;52.124;6.018;2023-07-13T00:59:13;16.10;99.90
47600;DHT22;33323;52.124;6.018;2023-07-13T01:01:42;16.10;99.90
47600;DHT22;33323;52.124;6.018;2023-07-13T01:04:10;16.10;99.90
47600;DHT22;33323;52.124;6.018;2023-07-13T01:06:38;16.20;99.90
47600;DHT22;33323;52.124;6.018;2023-07-13T01:09:08;16.10;99.90
47600;DHT22;33323;52.124;6.018;2023-07-13T01:11:37;16.10;99.90
47600;DHT22;33323;52.124;6.018;2023-07-13T01:14:04;16.00;99.90
47600;DHT22;33323;52.124;6.018;2023-07-13T01:16:34;16.00;99.90
47600;DHT22;33323;52.124;6.018;2023-07-13T01:19:09;15.90;99.90
47600;DHT22;33323;52.124;6.018;2023-07-13T01:22:12;15.90;99.90
47600;DHT22;33323;52.124;6.018;2023-07-13T01:24:46;15.90;99.90
47600;DHT22;33323;52.124;6.018;2023-07-13T01:27:17;15.80;99.90
47600;DHT22;33323;52.124;6.018;2023-07-13T01:29:53;15.80;99.90
47600;DHT22;33323;52.124;6.018;2023-07-13T01:32:28;15.80;99.90
47600;DHT22;33323;52.124;6.018;2023-07-13T01:34:58;15.80;99.90
47600;DHT22;33323;52.124;6.018;2023-07-13T01:37:26;15.70;99.90
47600;DHT22;33323;52.124;6.018;2023-07-13T01:39:53;15.80;99.90
47600;DHT22;33323;52.124;6.018;2023-07-13T01:42:20;15.70;99.90
47600;DHT22;33323;52.124;6.018;2023-07-13T01:44:48;15.70;99.90
47600;DHT22;33323;52.124;6.018;2023-07-13T01:47:15;15.70;99.90
47600;DHT22;33323;52.124;6.018;2023-07-13T01:49:42;15.70;99.90
47600;DHT22;33323;52.124;6.018;2023-07-13T01:52:09;15.60;99.90
47600;DHT22;33323;52.124;6.018;2023-07-13T01:54:36;15.60;99.90
47600;DHT22;33323;52.124;6.018;2023-07-13T01:57:03;15.70;99.90
47600;DHT22;33323;52.124;6.018;2023-07-13T01:59:31;15.60;99.90
47600;DHT22;33323;52.124;6.018;2023-07-13T02:02:00;15.60;99.90
47600;DHT22;33323;52.124;6.018;2023-07-13T02:04:27;15.60;99.90
47600;DHT22;33323;52.124;6.018;2023-07-13T02:06:54;15.70;99.90
47600;DHT22;33323;52.124;6.018;2023-07-13T02:09:22;15.60;99.90
47600;DHT22;33323;52.124;6.018;2023-07-13T02:11:49;15.60;99.90
47600;DHT22;33323;52.124;6.018;2023-07-13T02:14:16;15.50;99.90
47600;DHT22;33323;52.124;6.018;2023-07-13T02:16:43;15.50;99.90
47600;DHT22;33323;52.124;6.018;2023-07-13T02:19:11;15.50;99.90
47600;DHT22;33323;52.124;6.018;2023-07-13T02:21:38;15.50;99.90
47600;DHT22;33323;52.124;6.018;2023-07-13T02:24:05;15.50;99.90
47600;DHT22;33323;52.124;6.018;2023-07-13T02:26:34;15.50;99.90
47600;DHT22;33323;52.124;6.018;2023-07-13T02:29:02;15.40;99.90
47600;DHT22;33323;52.124;6.018;2023-07-13T02:31:29;15.40;99.90
47600;DHT22;33323;52.124;6.018;2023-07-13T02:33:56;15.30;99.90
47600;DHT22;33323;52.124;6.018;2023-07-13T02:36:23;15.40;99.90
47600;DHT22;33323;52.124;6.018;2023-07-13T02:38:50;15.40;99.90
47600;DHT22;33323;52.124;6.018;2023-07-13T02:41:17;15.30;99.90
47600;DHT22;33323;52.124;6.018;2023-07-13T02:43:45;15.30;99.90
47600;DHT22;33323;52.124;6.018;2023-07-13T02:46:13;15.30;99.90
47600;DHT22;33323;52.124;6.018;2023-07-13T02:48:40;15.30;99.90
47600;DHT22;33323;52.124;6.018;2023-07-13T02:51:08;15.30;99.90
47600;DHT22;33323;52.124;6.018;2023-07-13T02:53:35;15.10;99.90
47600;DHT22;33323;52.124;6.018;2023-07-13T02:56:04;15.10;99.90
47600;DHT22;33323;52.124;6.018;2023-07-13T02:58:32;15.10;99.90
47600;DHT22;33323;52.124;6.018;2023-07-13T03:00:59;15.00;99.90
47600;DHT22;33323;52.124;6.018;2023-07-13T03:03:26;15.00;99.90
47600;DHT22;33323;52.124;6.018;2023-07-13T03:05:59;15.10;99.90
47600;DHT22;33323;52.124;6.018;2023-07-13T03:08:32;15.00;99.90
47600;DHT22;33323;52.124;6.018;2023-07-13T03:11:22;15.00;99.90
47600;DHT22;33323;52.124;6.018;2023-07-13T03:13:55;15.10;99.90
47600;DHT22;33323;52.124;6.018;2023-07-13T03:16:23;15.10;99.90
47600;DHT22;33323;52.124;6.018;2023-07-13T03:18:52;15.00;99.90
47600;DHT22;33323;52.124;6.018;2023-07-13T03:21:19;15.00;99.90
47600;DHT22;33323;52.124;6.018;2023-07-13T03:23:47;15.00;99.90
47600;DHT22;33323;52.124;6.018;2023-07-13T03:26:17;15.00;99.90
47600;DHT22;33323;52.124;6.018;2023-07-13T03:28:46;15.00;99.90
47600;DHT22;33323;52.124;6.018;2023-07-13T03:31:28;15.00;99.90
47600;DHT22;33323;52.124;6.018;2023-07-13T03:33:56;14.90;99.90
47600;DHT22;33323;52.124;6.018;2023-07-13T03:36:26;14.90;99.90
47600;DHT22;33323;52.124;6.018;2023-07-13T03:38:59;14.80;99.90
47600;DHT22;33323;52.124;6.018;2023-07-13T03:41:40;14.90;99.90
47600;DHT22;33323;52.124;6.018;2023-07-13T03:44:07;14.90;99.90
47600;DHT22;33323;52.124;6.018;2023-07-13T03:46:35;14.80;99.90
47600;DHT22;33323;52.124;6.018;2023-07-13T03:49:04;14.80;99.90
47600;DHT22;33323;52.124;6.018;2023-07-13T03:51:32;14.80;99.90
47600;DHT22;33323;52.124;6.018;2023-07-13T03:54:00;14.80;99.90
47600;DHT22;33323;52.124;6.018;2023-07-13T03:56:27;14.90;99.90
47600;DHT22;33323;52.124;6.018;2023-07-13T03:58:55;14.80;99.90
47600;DHT22;33323;52.124;6.018;2023-07-13T04:01:23;14.90;99.90
47600;DHT22;33323;52.124;6.018;2023-07-13T04:03:52;14.90;99.90
47600;DHT22;33323;52.124;6.018;2023-07-13T04:06:28;15.00;99.90
47600;DHT22;33323;52.124;6.018;2023-07-13T04:08:59;15.10;99.90
47600;DHT22;33323;52.124;6.018;2023-07-13T04:11:29;15.20;99.90
47600;DHT22;33323;52.124;6.018;2023-07-13T04:13:59;15.30;99.90
47600;DHT22;33323;52.124;6.018;2023-07-13T04:16:26;15.50;99.90
47600;DHT22;33323;52.124;6.018;2023-07-13T04:18:55;15.60;99.90
47600;DHT22;33323;52.124;6.018;2023-07-13T04:21:29;15.60;99.90
47600;DHT22;33323;52.124;6.018;2023-07-13T04:23:57;15.80;99.90
47600;DHT22;33323;52.124;6.018;2023-07-13T04:26:25;15.90;99.90
47600;DHT22;33323;52.124;6.018;2023-07-13T04:28:52;16.00;99.90
47600;DHT22;33323;52.124;6.018;2023-07-13T04:31:20;16.20;99.90
47600;DHT22;33323;52.124;6.018;2023-07-13T04:33:47;16.30;99.90
47600;DHT22;33323;52.124;6.018;2023-07-13T04:36:16;16.50;99.90
47600;DHT22;33323;52.124;6.018;2023-07-13T04:38:43;16.70;99.90
47600;DHT22;33323;52.124;6.018;2023-07-13T04:41:11;16.80;99.90
47600;DHT22;33323;52.124;6.018;2023-07-13T04:43:39;17.00;99.90
47600;DHT22;33323;52.124;6.018;2023-07-13T04:46:08;17.20;99.90
47600;DHT22;33323;52.124;6.018;2023-07-13T04:48:38;17.30;99.90
47600;DHT22;33323;52.124;6.018;2023-07-13T04:51:05;17.30;99.90
47600;DHT22;33323;52.124;6.018;2023-07-13T04:53:33;17.30;99.90
47600;DHT22;33323;52.124;6.018;2023-07-13T04:56:02;17.50;99.90
47600;DHT22;33323;52.124;6.018;2023-07-13T04:58:30;17.90;99.90
47600;DHT22;33323;52.124;6.018;2023-07-13T05:01:05;18.00;99.90
47600;DHT22;33323;52.124;6.018;2023-07-13T05:03:33;18.20;99.90
47600;DHT22;33323;52.124;6.018;2023-07-13T05:06:04;18.30;99.90
47600;DHT22;33323;52.124;6.018;2023-07-13T05:08:33;18.70;99.90
47600;DHT22;33323;52.124;6.018;2023-07-13T05:11:01;18.70;99.90
47600;DHT22;33323;52.124;6.018;2023-07-13T05:13:30;18.80;99.90
47600;DHT22;33323;52.124;6.018;2023-07-13T05:15:59;18.90;99.90
47600;DHT22;33323;52.124;6.018;2023-07-13T05:18:29;18.70;99.90
47600;DHT22;33323;52.124;6.018;2023-07-13T05:21:07;18.50;99.90
47600;DHT22;33323;52.124;6.018;2023-07-13T05:23:36;18.60;99.90
47600;DHT22;33323;52.124;6.018;2023-07-13T05:26:04;18.70;99.90
47600;DHT22;33323;52.124;6.018;2023-07-13T05:28:35;18.90;99.90
47600;DHT22;33323;52.124;6.018;2023-07-13T05:31:03;19.10;99.90
47600;DHT22;33323;52.124;6.018;2023-07-13T05:33:31;19.10;99.90
47600;DHT22;33323;52.124;6.018;2023-07-13T05:35:58;19.10;99.90
47600;DHT22;33323;52.124;6.018;2023-07-13T05:38:27;19.30;99.90
47600;DHT22;33323;52.124;6.018;2023-07-13T05:40:55;19.30;99.90
47600;DHT22;33323;52.124;6.018;2023-07-13T05:43:25;19.20;99.90
47600;DHT22;33323;52.124;6.018;2023-07-13T05:45:56;19.10;99.90
47600;DHT22;33323;52.124;6.018;2023-07-13T05:48:24;18.90;99.90
47600;DHT22;33323;52.124;6.018;2023-07-13T05:50:51;18.70;99.90
47600;DHT22;33323;52.124;6.018;2023-07-13T05:53:19;18.70;99.90
47600;DHT22;33323;52.124;6.018;2023-07-13T05:55:47;18.90;99.90
47600;DHT22;33323;52.124;6.018;2023-07-13T05:58:18;18.80;99.90
47600;DHT22;33323;52.124;6.018;2023-07-13T06:00:47;18.80;99.90
47600;DHT22;33323;52.124;6.018;2023-07-13T06:03:15;19.10;99.90
47600;DHT22;33323;52.124;6.018;2023-07-13T06:05:42;19.20;99.90
47600;DHT22;33323;52.124;6.018;2023-07-13T06:08:10;18.90;99.90
47600;DHT22;33323;52.124;6.018;2023-07-13T06:10:37;18.90;99.90
47600;DHT22;33323;52.124;6.018;2023-07-13T06:13:05;19.00;99.90
47600;DHT22;33323;52.124;6.018;2023-07-13T06:15:33;19.30;99.90
47600;DHT22;33323;52.124;6.018;2023-07-13T06:18:00;19.40;99.90
47600;DHT22;33323;52.124;6.018;2023-07-13T06:20:28;19.20;99.90
47600;DHT22;33323;52.124;6.018;2023-07-13T06:22:56;19.40;99.90
47600;DHT22;33323;52.124;6.018;2023-07-13T06:25:25;19.70;99.90
47600;DHT22;33323;52.124;6.018;2023-07-13T06:27:53;19.80;99.90
47600;DHT22;33323;52.124;6.018;2023-07-13T06:30:21;19.60;99.90
47600;DHT22;33323;52.124;6.018;2023-07-13T06:32:49;19.60;99.90
47600;DHT22;33323;52.124;6.018;2023-07-13T06:35:16;19.90;99.90
47600;DHT22;33323;52.124;6.018;2023-07-13T06:37:44;20.00;99.90
47600;DHT22;33323;52.124;6.018;2023-07-13T06:40:12;20.10;99.90
47600;DHT22;33323;52.124;6.018;2023-07-13T06:42:40;19.90;99.90
47600;DHT22;33323;52.124;6.018;2023-07-13T06:45:08;19.90;99.90
47600;DHT22;33323;52.124;6.018;2023-07-13T06:47:36;19.70;99.90
47600;DHT22;33323;52.124;6.018;2023-07-13T06:50:04;19.70;99.90
47600;DHT22;33323;52.124;6.018;2023-07-13T06:52:32;19.90;99.90
47600;DHT22;33323;52.124;6.018;2023-07-13T06:54:59;20.00;99.90
47600;DHT22;33323;52.124;6.018;2023-07-13T06:57:27;20.00;99.90
47600;DHT22;33323;52.124;6.018;2023-07-13T06:59:55;19.90;99.90
47600;DHT22;33323;52.124;6.018;2023-07-13T07:02:22;19.70;99.90
47600;DHT22;33323;52.124;6.018;2023-07-13T07:04:50;20.30;99.90
47600;DHT22;33323;52.124;6.018;2023-07-13T07:07:18;20.80;99.90
47600;DHT22;33323;52.124;6.018;2023-07-13T07:09:45;21.10;99.90
47600;DHT22;33323;52.124;6.018;2023-07-13T07:12:13;21.20;99.90
47600;DHT22;33323;52.124;6.018;2023-07-13T07:14:41;21.10;99.90
47600;DHT22;33323;52.124;6.018;2023-07-13T07:17:08;21.00;99.90
47600;DHT22;33323;52.124;6.018;2023-07-13T07:19:36;21.10;99.90
47600;DHT22;33323;52.124;6.018;2023-07-13T07:22:05;20.90;99.90
47600;DHT22;33323;52.124;6.018;2023-07-13T07:24:33;21.40;99.90
47600;DHT22;33323;52.124;6.018;2023-07-13T07:27:01;21.60;99.90
47600;DHT22;33323;52.124;6.018;2023-07-13T07:29:31;22.00;99.90
47600;DHT22;33323;52.124;6.018;2023-07-13T07:32:03;21.90;99.90
47600;DHT22;33323;52.124;6.018;2023-07-13T07:34:51;22.10;99.90
47600;DHT22;33323;52.124;6.018;2023-07-13T07:37:18;22.10;99.90
47600;DHT22;33323;52.124;6.018;2023-07-13T07:39:49;21.70;99.90
47600;DHT22;33323;52.124;6.018;2023-07-13T07:42:36;21.50;99.90
47600;DHT22;33323;52.124;6.018;2023-07-13T07:45:04;21.30;99.90
47600;DHT22;33323;52.124;6.018;2023-07-13T07:47:32;20.90;99.90
47600;DHT22;33323;52.124;6.018;2023-07-13T07:50:00;20.70;99.90
47600;DHT22;33323;52.124;6.018;2023-07-13T07:52:28;20.50;99.90
47600;DHT22;33323;52.124;6.018;2023-07-13T07:54:56;20.30;99.90
47600;DHT22;33323;52.124;6.018;2023-07-13T07:57:44;20.40;99.90
47600;DHT22;33323;52.124;6.018;2023-07-13T08:00:15;20.90;99.90
47600;DHT22;33323;52.124;6.018;2023-07-13T08:02:47;21.10;99.90
47600;DHT22;33323;52.124;6.018;2023-07-13T08:05:18;21.40;99.90
47600;DHT22;33323;52.124;6.018;2023-07-13T08:08:05;21.50;99.90
47600;DHT22;33323;52.124;6.018;2023-07-13T08:10:35;21.80;99.90
47600;DHT22;33323;52.124;6.018;2023-07-13T08:13:04;22.40;99.90
47600;DHT22;33323;52.124;6.018;2023-07-13T08:15:34;22.50;99.90
47600;DHT22;33323;52.124;6.018;2023-07-13T08:18:02;21.80;99.90
47600;DHT22;33323;52.124;6.018;2023-07-13T08:20:30;21.60;99.90
47600;DHT22;33323;52.124;6.018;2023-07-13T08:22:58;22.10;99.90
47600;DHT22;33323;52.124;6.018;2023-07-13T08:25:25;22.30;99.90
47600;DHT22;33323;52.124;6.018;2023-07-13T08:27:53;22.30;99.90
47600;DHT22;33323;52.124;6.018;2023-07-13T08:30:21;22.20;99.90
47600;DHT22;33323;52.124;6.018;2023-07-13T08:32:49;22.30;99.90
47600;DHT22;33323;52.124;6.018;2023-07-13T08:35:17;23.10;99.90
47600;DHT22;33323;52.124;6.018;2023-07-13T08:37:45;23.80;99.90
47600;DHT22;33323;52.124;6.018;2023-07-13T08:40:13;23.80;99.90
47600;DHT22;33323;52.124;6.018;2023-07-13T08:42:45;23.80;99.90
47600;DHT22;33323;52.124;6.018;2023-07-13T08:48:13;24.20;99.90
47600;DHT22;33323;52.124;6.018;2023-07-13T08:53:36;24.20;99.90
47600;DHT22;33323;52.124;6.018;2023-07-13T08:56:19;24.50;99.90
47600;DHT22;33323;52.124;6.018;2023-07-13T08:58:51;23.70;99.90
47600;DHT22;33323;52.124;6.018;2023-07-13T09:01:43;23.00;99.90
47600;DHT22;33323;52.124;6.018;2023-07-13T09:05:04;22.50;99.90
47600;DHT22;33323;52.124;6.018;2023-07-13T09:07:29;22.00;99.90
47600;DHT22;33323;52.124;6.018;2023-07-13T09:10:31;21.50;99.90
47600;DHT22;33323;52.124;6.018;2023-07-13T09:13:25;21.90;99.90
47600;DHT22;33323;52.124;6.018;2023-07-13T09:16:00;22.40;99.90
47600;DHT22;33323;52.124;6.018;2023-07-13T09:18:41;23.00;99.90
47600;DHT22;33323;52.124;6.018;2023-07-13T09:21:18;23.50;99.90
47600;DHT22;33323;52.124;6.018;2023-07-13T09:23:53;23.40;99.90
47600;DHT22;33323;52.124;6.018;2023-07-13T09:26:25;23.40;99.90
47600;DHT22;33323;52.124;6.018;2023-07-13T09:29:22;23.20;99.90
47600;DHT22;33323;52.124;6.018;2023-07-13T09:31:55;22.90;99.90
47600;DHT22;33323;52.124;6.018;2023-07-13T09:34:28;22.50;99.90
47600;DHT22;33323;52.124;6.018;2023-07-13T09:36:57;22.30;99.90
47600;DHT22;33323;52.124;6.018;2023-07-13T09:39:33;22.00;99.90
47600;DHT22;33323;52.124;6.018;2023-07-13T09:44:37;21.70;99.90
47600;DHT22;33323;52.124;6.018;2023-07-13T09:47:21;21.30;99.90
47600;DHT22;33323;52.124;6.018;2023-07-13T09:50:02;21.10;99.90
47600;DHT22;33323;52.124;6.018;2023-07-13T09:52:46;21.50;99.90
47600;DHT22;33323;52.124;6.018;2023-07-13T09:55:30;22.10;99.90
47600;DHT22;33323;52.124;6.018;2023-07-13T09:58:21;23.00;99.90
47600;DHT22;33323;52.124;6.018;2023-07-13T10:01:03;23.40;99.90
47600;DHT22;33323;52.124;6.018;2023-07-13T10:03:36;23.20;99.90
47600;DHT22;33323;52.124;6.018;2023-07-13T10:06:16;23.20;99.90
47600;DHT22;33323;52.124;6.018;2023-07-13T10:08:47;23.40;99.90
47600;DHT22;33323;52.124;6.018;2023-07-13T10:11:22;23.20;99.90
47600;DHT22;33323;52.124;6.018;2023-07-13T10:13:59;22.60;99.90
47600;DHT22;33323;52.124;6.018;2023-07-13T10:16:35;22.70;99.90
47600;DHT22;33323;52.124;6.018;2023-07-13T10:19:12;23.00;99.90
47600;DHT22;33323;52.124;6.018;2023-07-13T10:21:56;23.50;99.90
47600;DHT22;33323;52.124;6.018;2023-07-13T10:24:31;23.80;99.90
47600;DHT22;33323;52.124;6.018;2023-07-13T10:27:16;23.70;99.90
47600;DHT22;33323;52.124;6.018;2023-07-13T10:30:08;23.90;99.90
47600;DHT22;33323;52.124;6.018;2023-07-13T10:32:43;23.70;99.90
47600;DHT22;33323;52.124;6.018;2023-07-13T10:35:13;23.70;99.90
47600;DHT22;33323;52.124;6.018;2023-07-13T10:37:49;24.20;99.90
47600;DHT22;33323;52.124;6.018;2023-07-13T10:40:26;24.20;99.90
47600;DHT22;33323;52.124;6.018;2023-07-13T10:42:59;24.00;99.90
47600;DHT22;33323;52.124;6.018;2023-07-13T10:45:30;23.60;99.90
47600;DHT22;33323;52.124;6.018;2023-07-13T10:48:01;23.50;99.90
47600;DHT22;33323;52.124;6.018;2023-07-13T10:50:29;22.70;99.90
47600;DHT22;33323;52.124;6.018;2023-07-13T10:58:33;21.10;99.90
47600;DHT22;33323;52.124;6.018;2023-07-13T11:01:13;21.10;99.90
47600;DHT22;33323;52.124;6.018;2023-07-13T11:03:53;21.70;99.90
47600;DHT22;33323;52.124;6.018;2023-07-13T11:06:41;22.00;99.90
47600;DHT22;33323;52.124;6.018;2023-07-13T11:09:33;22.00;99.90
47600;DHT22;33323;52.124;6.018;2023-07-13T11:12:28;21.70;99.90
47600;DHT22;33323;52.124;6.018;2023-07-13T11:15:32;21.40;99.90
47600;DHT22;33323;52.124;6.018;2023-07-13T11:18:23;21.30;99.90
47600;DHT22;33323;52.124;6.018;2023-07-13T11:21:13;21.00;99.90
47600;DHT22;33323;52.124;6.018;2023-07-13T11:24:17;20.80;99.90
47600;DHT22;33323;52.124;6.018;2023-07-13T11:29:38;21.40;99.90
47600;DHT22;33323;52.124;6.018;2023-07-13T11:32:30;22.00;99.90
47600;DHT22;33323;52.124;6.018;2023-07-13T11:34:58;21.90;99.90
47600;DHT22;33323;52.124;6.018;2023-07-13T11:37:26;21.80;99.90
47600;DHT22;33323;52.124;6.018;2023-07-13T11:39:56;21.70;99.90
47600;DHT22;33323;52.124;6.018;2023-07-13T11:42:23;21.30;99.90
47600;DHT22;33323;52.124;6.018;2023-07-13T11:44:52;21.10;99.90
47600;DHT22;33323;52.124;6.018;2023-07-13T11:47:40;21.10;99.90
47600;DHT22;33323;52.124;6.018;2023-07-13T11:50:20;21.30;99.90
47600;DHT22;33323;52.124;6.018;2023-07-13T11:52:51;21.50;99.90
47600;DHT22;33323;52.124;6.018;2023-07-13T11:55:22;21.90;99.90
47600;DHT22;33323;52.124;6.018;2023-07-13T11:57:56;22.40;99.90
47600;DHT22;33323;52.124;6.018;2023-07-13T12:00:28;22.90;99.90
47600;DHT22;33323;52.124;6.018;2023-07-13T12:03:01;23.30;99.90
47600;DHT22;33323;52.124;6.018;2023-07-13T12:05:32;23.70;99.90
47600;DHT22;33323;52.124;6.018;2023-07-13T12:08:09;23.80;99.90
47600;DHT22;33323;52.124;6.018;2023-07-13T12:10:57;23.80;99.90
47600;DHT22;33323;52.124;6.018;2023-07-13T12:13:37;22.90;99.90
47600;DHT22;33323;52.124;6.018;2023-07-13T12:16:22;22.30;99.90
47600;DHT22;33323;52.124;6.018;2023-07-13T12:18:56;22.00;99.90
47600;DHT22;33323;52.124;6.018;2023-07-13T12:21:31;22.00;99.90
47600;DHT22;33323;52.124;6.018;2023-07-13T12:24:02;22.00;99.90
47600;DHT22;33323;52.124;6.018;2023-07-13T12:26:32;22.10;99.90
47600;DHT22;33323;52.124;6.018;2023-07-13T12:29:04;22.30;99.90
47600;DHT22;33323;52.124;6.018;2023-07-13T12:31:40;22.40;99.90
47600;DHT22;33323;52.124;6.018;2023-07-13T12:34:16;22.60;99.90
47600;DHT22;33323;52.124;6.018;2023-07-13T12:36:59;22.70;99.90
47600;DHT22;33323;52.124;6.018;2023-07-13T12:39:35;22.70;99.90
47600;DHT22;33323;52.124;6.018;2023-07-13T12:42:25;22.40;99.90
47600;DHT22;33323;52.124;6.018;2023-07-13T12:45:05;21.70;99.90
47600;DHT22;33323;52.124;6.018;2023-07-13T12:47:44;21.60;99.90
47600;DHT22;33323;52.124;6.018;2023-07-13T12:50:19;21.50;99.90
47600;DHT22;33323;52.124;6.018;2023-07-13T12:52:53;21.50;99.90
47600;DHT22;33323;52.124;6.018;2023-07-13T12:55:22;21.60;99.90
47600;DHT22;33323;52.124;6.018;2023-07-13T12:57:54;21.70;99.90
47600;DHT22;33323;52.124;6.018;2023-07-13T13:00:34;21.40;99.90
47600;DHT22;33323;52.124;6.018;2023-07-13T13:03:21;21.30;99.90
47600;DHT22;33323;52.124;6.018;2023-07-13T13:06:17;21.30;99.90
47600;DHT22;33323;52.124;6.018;2023-07-13T13:08:57;21.40;99.90
47600;DHT22;33323;52.124;6.018;2023-07-13T13:11:28;21.60;99.90
47600;DHT22;33323;52.124;6.018;2023-07-13T13:13:58;21.80;99.90
47600;DHT22;33323;52.124;6.018;2023-07-13T13:18:55;22.10;99.90
47600;DHT22;33323;52.124;6.018;2023-07-13T13:21:26;22.30;99.90
47600;DHT22;33323;52.124;6.018;2023-07-13T13:23:54;22.30;99.90
47600;DHT22;33323;52.124;6.018;2023-07-13T13:26:22;22.30;99.90
47600;DHT22;33323;52.124;6.018;2023-07-13T13:28:50;22.60;99.90
47600;DHT22;33323;52.124;6.018;2023-07-13T13:31:18;22.60;99.90
47600;DHT22;33323;52.124;6.018;2023-07-13T13:33:46;22.50;99.90
47600;DHT22;33323;52.124;6.018;2023-07-13T13:36:17;23.10;99.90
47600;DHT22;33323;52.124;6.018;2023-07-13T13:38:48;23.40;99.90
47600;DHT22;33323;52.124;6.018;2023-07-13T13:41:17;23.50;99.90
47600;DHT22;33323;52.124;6.018;2023-07-13T13:43:46;23.60;99.90
47600;DHT22;33323;52.124;6.018;2023-07-13T13:46:22;23.50;99.90
47600;DHT22;33323;52.124;6.018;2023-07-13T13:48:57;23.40;99.90
47600;DHT22;33323;52.124;6.018;2023-07-13T13:51:25;23.20;99.90
47600;DHT22;33323;52.124;6.018;2023-07-13T13:53:56;23.20;99.90
47600;DHT22;33323;52.124;6.018;2023-07-13T13:56:24;23.00;99.90
47600;DHT22;33323;52.124;6.018;2023-07-13T13:58:53;23.20;99.90
47600;DHT22;33323;52.124;6.018;2023-07-13T14:01:22;23.50;99.90
47600;DHT22;33323;52.124;6.018;2023-07-13T14:03:51;23.70;99.90
47600;DHT22;33323;52.124;6.018;2023-07-13T14:06:20;23.90;99.90
47600;DHT22;33323;52.124;6.018;2023-07-13T14:08:47;24.00;99.90
47600;DHT22;33323;52.124;6.018;2023-07-13T14:11:18;24.10;99.90
47600;DHT22;33323;52.124;6.018;2023-07-13T14:13:53;24.10;99.90
47600;DHT22;33323;52.124;6.018;2023-07-13T14:16:29;24.40;99.90
47600;DHT22;33323;52.124;6.018;2023-07-13T14:18:59;24.50;99.90
47600;DHT22;33323;52.124;6.018;2023-07-13T14:21:29;24.30;99.90
47600;DHT22;33323;52.124;6.018;2023-07-13T14:23:56;24.30;99.90
47600;DHT22;33323;52.124;6.018;2023-07-13T14:26:26;24.50;99.90
47600;DHT22;33323;52.124;6.018;2023-07-13T14:28:56;24.30;99.90
47600;DHT22;33323;52.124;6.018;2023-07-13T14:31:26;24.10;99.90
47600;DHT22;33323;52.124;6.018;2023-07-13T14:33:57;23.60;99.90
47600;DHT22;33323;52.124;6.018;2023-07-13T14:36:33;23.40;99.90
47600;DHT22;33323;52.124;6.018;2023-07-13T14:39:30;23.20;99.90
47600;DHT22;33323;52.124;6.018;2023-07-13T14:41:58;23.20;99.90
47600;DHT22;33323;52.124;6.018;2023-07-13T14:44:30;23.30;99.90
47600;DHT22;33323;52.124;6.018;2023-07-13T14:47:02;23.50;99.90
47600;DHT22;33323;52.124;6.018;2023-07-13T14:49:43;23.90;99.90
47600;DHT22;33323;52.124;6.018;2023-07-13T14:52:16;24.30;99.90
47600;DHT22;33323;52.124;6.018;2023-07-13T14:54:46;24.50;99.90
47600;DHT22;33323;52.124;6.018;2023-07-13T14:57:18;24.60;99.90
47600;DHT22;33323;52.124;6.018;2023-07-13T14:59:47;24.70;99.90
47600;DHT22;33323;52.124;6.018;2023-07-13T15:05:01;24.40;99.90
47600;DHT22;33323;52.124;6.018;2023-07-13T15:07:30;24.40;99.90
47600;DHT22;33323;52.124;6.018;2023-07-13T15:09:58;24.50;99.90
47600;DHT22;33323;52.124;6.018;2023-07-13T15:12:25;24.50;99.90
47600;DHT22;33323;52.124;6.018;2023-07-13T15:14:53;24.50;99.90
47600;DHT22;33323;52.124;6.018;2023-07-13T15:17:31;24.20;99.90
47600;DHT22;33323;52.124;6.018;2023-07-13T15:23:00;24.30;99.90
47600;DHT22;33323;52.124;6.018;2023-07-13T15:25:30;23.90;99.90
47600;DHT22;33323;52.124;6.018;2023-07-13T15:28:01;23.80;99.90
47600;DHT22;33323;52.124;6.018;2023-07-13T15:30:31;23.70;99.90
47600;DHT22;33323;52.124;6.018;2023-07-13T15:35:51;23.80;99.90
47600;DHT22;33323;52.124;6.018;2023-07-13T15:38:23;23.70;99.90
47600;DHT22;33323;52.124;6.018;2023-07-13T15:40:55;23.80;99.90
47600;DHT22;33323;52.124;6.018;2023-07-13T15:43:23;23.90;99.90
47600;DHT22;33323;52.124;6.018;2023-07-13T15:45:52;24.10;99.90
47600;DHT22;33323;52.124;6.018;2023-07-13T15:48:25;24.20;99.90
47600;DHT22;33323;52.124;6.018;2023-07-13T15:50:56;24.10;99.90
47600;DHT22;33323;52.124;6.018;2023-07-13T15:53:33;23.80;99.90
47600;DHT22;33323;52.124;6.018;2023-07-13T15:56:11;23.80;99.90
47600;DHT22;33323;52.124;6.018;2023-07-13T15:58:48;23.90;99.90
47600;DHT22;33323;52.124;6.018;2023-07-13T16:01:16;23.90;99.90
47600;DHT22;33323;52.124;6.018;2023-07-13T16:03:44;23.70;99.90
47600;DHT22;33323;52.124;6.018;2023-07-13T16:06:22;23.80;99.90
47600;DHT22;33323;52.124;6.018;2023-07-13T16:08:52;23.50;99.90
47600;DHT22;33323;52.124;6.018;2023-07-13T16:11:26;23.50;99.90
47600;DHT22;33323;52.124;6.018;2023-07-13T16:13:54;23.40;99.90
47600;DHT22;33323;52.124;6.018;2023-07-13T16:16:26;23.20;99.90
47600;DHT22;33323;52.124;6.018;2023-07-13T16:18:57;23.10;99.90
47600;DHT22;33323;52.124;6.018;2023-07-13T16:21:30;23.30;99.90
47600;DHT22;33323;52.124;6.018;2023-07-13T16:24:12;23.30;99.90
47600;DHT22;33323;52.124;6.018;2023-07-13T16:26:48;23.40;99.90
47600;DHT22;33323;52.124;6.018;2023-07-13T16:29:22;23.70;99.90